createdAt,value
2019-04-05T00:00:15.179Z,-889.74
2019-04-05T00:01:15.580Z,-887.62
2019-04-05T00:02:15.881Z,-892.34
2019-04-05T00:03:16.246Z,-895.58
2019-04-05T00:04:16.565Z,-895.49
2019-04-05T00:05:16.952Z,-894.43
2019-04-05T00:06:17.310Z,-891.08
2019-04-05T00:07:17.656Z,-889.82
2019-04-05T00:08:18.028Z,-888.65
2019-04-05T00:09:18.360Z,-887.37
2019-04-05T00:10:18.834Z,-889.76
2019-04-05T00:11:19.073Z,-891.98
2019-04-05T00:12:19.416Z,-888.05
2019-04-05T00:13:20.035Z,-892.03
2019-04-05T00:14:20.126Z,-890.58
2019-04-05T00:15:20.494Z,-896.21
2019-04-05T00:16:20.824Z,-895.48
2019-04-05T00:17:21.190Z,-891.49
2019-04-05T00:18:21.711Z,-892.21
2019-04-05T00:19:21.884Z,-890.00
2019-04-05T00:20:22.235Z,-895.25
2019-04-05T00:21:22.601Z,-888.51
2019-04-05T00:22:22.962Z,-892.61
2019-04-05T00:23:23.331Z,-894.85
2019-04-05T00:24:23.666Z,-894.06
2019-04-05T00:25:24.020Z,-893.69
2019-04-05T00:26:24.452Z,-890.48
2019-04-05T00:27:24.703Z,-891.89
2019-04-05T00:28:25.100Z,-895.59
2019-04-05T00:29:25.436Z,-887.00
2019-04-05T00:30:25.800Z,-884.59
2019-04-05T00:31:26.167Z,-889.57
2019-04-05T00:32:26.500Z,-889.20
2019-04-05T00:33:26.870Z,-889.74
2019-04-05T00:34:27.271Z,-892.78
2019-04-05T00:35:27.549Z,-892.48
2019-04-05T00:36:27.964Z,-896.92
2019-04-05T00:37:28.284Z,-890.90
2019-04-05T00:38:28.700Z,-889.89
2019-04-05T00:39:28.989Z,-890.66
2019-04-05T00:40:29.360Z,-890.85
2019-04-05T00:41:29.742Z,-892.13
2019-04-05T00:42:30.085Z,-888.57
2019-04-05T00:43:30.527Z,-890.74
2019-04-05T00:44:30.771Z,-889.28
2019-04-05T00:45:31.117Z,-891.30
2019-04-05T00:46:31.497Z,-893.88
2019-04-05T00:47:31.825Z,-891.23
2019-04-05T00:48:32.197Z,-890.56
2019-04-05T00:49:32.521Z,-890.21
2019-04-05T00:50:32.885Z,-891.65
2019-04-05T00:51:33.406Z,-895.22
2019-04-05T00:52:33.590Z,-891.98
2019-04-05T00:53:33.960Z,-891.46
2019-04-05T00:54:34.322Z,-892.62
2019-04-05T00:55:34.655Z,-892.66
2019-04-05T00:56:35.032Z,-889.99
2019-04-05T00:57:35.362Z,-893.58
2019-04-05T00:58:35.732Z,-892.24
2019-04-05T00:59:36.168Z,-896.98
2019-04-05T01:00:36.387Z,-893.64
2019-04-05T01:01:36.799Z,-891.44
2019-04-05T01:02:37.120Z,-890.07
2019-04-05T01:03:37.486Z,-888.15
2019-04-05T01:04:37.820Z,-892.51
2019-04-05T01:05:38.173Z,-891.28
2019-04-05T01:06:38.536Z,-890.94
2019-04-05T01:07:38.935Z,-896.31
2019-04-05T01:08:39.234Z,-894.65
2019-04-05T01:09:39.570Z,-898.92
2019-04-05T01:10:39.922Z,-891.01
2019-04-05T01:11:40.305Z,-898.25
2019-04-05T01:12:40.620Z,-896.39
2019-04-05T01:13:41.009Z,-897.67
2019-04-05T01:14:41.337Z,-893.10
2019-04-05T01:15:41.716Z,-893.39
2019-04-05T01:16:42.330Z,-897.04
2019-04-05T01:17:42.391Z,-897.06
2019-04-05T01:18:42.754Z,-896.99
2019-04-05T01:19:43.098Z,-895.56
2019-04-05T01:20:43.444Z,-894.24
2019-04-05T01:21:43.823Z,-890.76
2019-04-05T01:22:44.151Z,-891.24
2019-04-05T01:23:44.509Z,-892.76
2019-04-05T01:24:44.937Z,-897.12
2019-04-05T01:25:45.207Z,-891.14
2019-04-05T01:26:45.954Z,-894.28
2019-04-05T01:27:48.239Z,-889.15
2019-04-05T01:28:46.276Z,-893.56
2019-04-05T01:29:46.626Z,-890.83
2019-04-05T01:30:46.978Z,-889.87
2019-04-05T01:31:47.378Z,-888.88
2019-04-05T01:32:47.812Z,-888.81
2019-04-05T01:33:48.149Z,-895.83
2019-04-05T01:34:48.495Z,-896.95
2019-04-05T01:35:48.856Z,-886.70
2019-04-05T01:36:49.243Z,-931.26
2019-04-05T01:37:49.572Z,-942.87
2019-04-05T01:38:49.950Z,-949.35
2019-04-05T01:39:50.295Z,-948.00
2019-04-05T01:40:50.701Z,-945.33
2019-04-05T01:41:51.043Z,-946.71
2019-04-05T01:42:51.373Z,-944.69
2019-04-05T01:43:51.747Z,-948.11
2019-04-05T01:44:52.115Z,-947.47
2019-04-05T01:45:53.885Z,-949.02
2019-04-05T01:46:52.833Z,-947.29
2019-04-05T01:47:53.162Z,-952.43
2019-04-05T01:48:53.554Z,-949.49
2019-04-05T01:49:53.947Z,-951.32
2019-04-05T01:50:54.253Z,-950.10
2019-04-05T01:51:54.901Z,-945.32
2019-04-05T01:52:54.988Z,-949.36
2019-04-05T01:53:55.365Z,-946.21
2019-04-05T01:54:55.723Z,-948.81
2019-04-05T01:55:56.061Z,-943.06
2019-04-05T01:56:56.439Z,-947.14
2019-04-05T01:57:56.880Z,-945.46
2019-04-05T01:58:57.146Z,-945.51
2019-04-05T01:59:57.514Z,-950.39
2019-04-05T02:00:57.862Z,-946.07
2019-04-05T02:01:58.246Z,-941.71
2019-04-05T02:02:58.572Z,-946.64
2019-04-05T02:03:58.969Z,-946.57
2019-04-05T02:04:59.329Z,-946.23
2019-04-05T02:05:59.746Z,-945.40
2019-04-05T02:06:59.964Z,-943.84
2019-04-05T02:08:00.307Z,-944.70
2019-04-05T02:09:00.693Z,-946.78
2019-04-05T02:10:01.028Z,-944.08
2019-04-05T02:11:01.383Z,-943.66
2019-04-05T02:12:01.745Z,-938.07
2019-04-05T02:13:02.095Z,-936.11
2019-04-05T02:14:02.732Z,-945.42
2019-04-05T02:15:02.871Z,-943.61
2019-04-05T02:16:06.494Z,-943.38
2019-04-05T02:17:03.616Z,-944.96
2019-04-05T02:18:03.914Z,-943.60
2019-04-05T02:19:04.314Z,-945.07
2019-04-05T02:20:04.673Z,-944.57
2019-04-05T02:21:05.012Z,-944.40
2019-04-05T02:22:05.432Z,-944.46
2019-04-05T02:23:05.697Z,-943.58
2019-04-05T02:24:06.100Z,-950.63
2019-04-05T02:25:06.457Z,-947.45
2019-04-05T02:26:06.804Z,-943.74
2019-04-05T02:27:07.194Z,-945.73
2019-04-05T02:28:07.526Z,-948.61
2019-04-05T02:29:07.872Z,-946.24
2019-04-05T02:30:08.279Z,-949.60
2019-04-05T02:31:08.719Z,-942.15
2019-04-05T02:32:09.010Z,-949.07
2019-04-05T02:33:09.344Z,-945.80
2019-04-05T02:34:09.680Z,-943.68
2019-04-05T02:35:10.080Z,-950.43
2019-04-05T02:36:10.414Z,-949.84
2019-04-05T02:37:10.810Z,-945.63
2019-04-05T02:38:11.146Z,-947.11
2019-04-05T02:39:11.607Z,-946.18
2019-04-05T02:40:11.894Z,-946.43
2019-04-05T02:41:12.226Z,-948.25
2019-04-05T02:42:12.614Z,-891.96
2019-04-05T02:43:12.959Z,-892.07
2019-04-05T02:44:13.313Z,-884.22
2019-04-05T02:45:13.667Z,-866.89
2019-04-05T02:46:23.543Z,-884.56
2019-04-05T02:47:15.423Z,-885.79
2019-04-05T02:48:14.723Z,-892.55
2019-04-05T02:49:15.088Z,-891.16
2019-04-05T02:50:15.466Z,-891.11
2019-04-05T02:51:15.784Z,-895.30
2019-04-05T02:52:16.168Z,-891.15
2019-04-05T02:53:16.537Z,-893.83
2019-04-05T02:54:16.900Z,-895.58
2019-04-05T02:55:17.331Z,-896.03
2019-04-05T02:56:17.580Z,-892.28
2019-04-05T02:57:17.956Z,-890.24
2019-04-05T02:58:18.333Z,-894.86
2019-04-05T02:59:18.673Z,-894.93
2019-04-05T03:00:19.053Z,-892.55
2019-04-05T03:01:22.608Z,-893.62
2019-04-05T03:02:19.751Z,-889.27
2019-04-05T03:03:20.147Z,-892.62
2019-04-05T03:04:20.566Z,-893.78
2019-04-05T03:05:20.875Z,-888.79
2019-04-05T03:06:21.187Z,-888.43
2019-04-05T03:07:21.548Z,-892.16
2019-04-05T03:08:21.939Z,-894.66
2019-04-05T03:09:22.289Z,-891.52
2019-04-05T03:10:22.661Z,-894.03
2019-04-05T03:11:23.011Z,-893.67
2019-04-05T03:12:23.473Z,-894.72
2019-04-05T03:13:23.743Z,-890.16
2019-04-05T03:14:24.083Z,-891.57
2019-04-05T03:15:24.455Z,-889.30
2019-04-05T03:16:38.568Z,-887.94
2019-04-05T03:17:26.546Z,-883.85
2019-04-05T03:18:25.516Z,-886.55
2019-04-05T03:19:25.855Z,-884.21
2019-04-05T03:20:26.315Z,-888.51
2019-04-05T03:21:26.583Z,-890.00
2019-04-05T03:22:26.952Z,-890.43
2019-04-05T03:23:27.318Z,-896.34
2019-04-05T03:24:27.642Z,-890.47
2019-04-05T03:25:28.046Z,-893.06
2019-04-05T03:26:28.369Z,-888.37
2019-04-05T03:27:28.743Z,-887.43
2019-04-05T03:28:29.136Z,-886.48
2019-04-05T03:29:29.427Z,-891.53
2019-04-05T03:30:29.826Z,-884.01
2019-04-05T03:31:30.176Z,-887.44
2019-04-05T03:32:30.553Z,-880.18
2019-04-05T03:33:31.144Z,-884.06
2019-04-05T03:34:31.277Z,-879.31
2019-04-05T03:35:31.630Z,-875.42
2019-04-05T03:36:32.017Z,-875.77
2019-04-05T03:37:36.800Z,-881.94
2019-04-05T03:38:32.719Z,-872.26
2019-04-05T03:39:33.057Z,-872.61
2019-04-05T03:40:33.438Z,-879.57
2019-04-05T03:41:33.771Z,-880.29
2019-04-05T03:42:34.139Z,-871.12
2019-04-05T03:43:34.508Z,-872.63
2019-04-05T03:44:34.868Z,-884.23
2019-04-05T03:45:35.328Z,-881.30
2019-04-05T03:46:35.555Z,-883.42
2019-04-05T03:47:35.912Z,-885.84
2019-04-05T03:48:36.305Z,-888.24
2019-04-05T03:49:36.648Z,-882.73
2019-04-05T03:50:37.034Z,-882.11
2019-04-05T03:51:37.365Z,-879.29
2019-04-05T03:52:37.746Z,-868.87
2019-04-05T03:53:38.213Z,-875.42
2019-04-05T03:54:38.436Z,-875.33
2019-04-05T03:55:38.812Z,-877.76
2019-04-05T03:56:39.157Z,-874.82
2019-04-05T03:57:39.499Z,-839.57
2019-04-05T03:58:39.894Z,-859.87
2019-04-05T03:59:40.250Z,-866.95
2019-04-05T04:00:40.608Z,-872.05
2019-04-05T04:01:41.029Z,-866.29
2019-04-05T04:02:41.314Z,-867.86
2019-04-05T04:03:41.684Z,-875.68
2019-04-05T04:04:42.035Z,-868.40
2019-04-05T04:05:42.421Z,-865.63
2019-04-05T04:06:42.769Z,-869.30
2019-04-05T04:07:43.128Z,-871.39
2019-04-05T04:08:43.511Z,-862.55
2019-04-05T04:09:43.895Z,-861.91
2019-04-05T04:10:44.210Z,-861.05
2019-04-05T04:11:44.580Z,-858.27
2019-04-05T04:12:44.936Z,-866.56
2019-04-05T04:13:45.324Z,-853.47
2019-04-05T04:14:45.678Z,-858.96
2019-04-05T04:15:46.022Z,-855.86
2019-04-05T04:16:46.429Z,-843.39
2019-04-05T04:17:46.814Z,-840.89
2019-04-05T04:18:47.187Z,-857.88
2019-04-05T04:19:47.457Z,-858.75
2019-04-05T04:20:47.812Z,-848.03
2019-04-05T04:21:48.197Z,-857.07
2019-04-05T04:22:48.663Z,-856.67
2019-04-05T04:23:48.911Z,-853.96
2019-04-05T04:24:49.253Z,-851.91
2019-04-05T04:25:49.628Z,-857.90
2019-04-05T04:26:50.121Z,-854.75
2019-04-05T04:27:50.777Z,-858.33
2019-04-05T04:28:50.710Z,-856.67
2019-04-05T04:29:51.054Z,-841.76
2019-04-05T04:30:51.406Z,-852.91
2019-04-05T04:31:51.767Z,-849.95
2019-04-05T04:32:52.182Z,-858.91
2019-04-05T04:33:52.518Z,-856.84
2019-04-05T04:34:52.901Z,-854.08
2019-04-05T04:35:53.209Z,-845.85
2019-04-05T04:36:53.561Z,-854.83
2019-04-05T04:37:53.943Z,-844.67
2019-04-05T04:38:54.297Z,-839.97
2019-04-05T04:39:54.648Z,-843.28
2019-04-05T04:40:54.997Z,-836.95
2019-04-05T04:41:55.387Z,-847.97
2019-04-05T04:42:55.752Z,-836.27
2019-04-05T04:43:56.147Z,-836.71
2019-04-05T04:44:56.424Z,-842.48
2019-04-05T04:45:56.785Z,-833.67
2019-04-05T04:46:57.161Z,-835.38
2019-04-05T04:47:57.505Z,-849.69
2019-04-05T04:48:57.875Z,-841.44
2019-04-05T04:49:58.214Z,-842.78
2019-04-05T04:50:58.623Z,-844.60
2019-04-05T04:51:59.013Z,-852.49
2019-04-05T04:52:59.341Z,-855.00
2019-04-05T04:53:59.735Z,-855.10
2019-04-05T04:55:00.046Z,-853.05
2019-04-05T04:56:00.417Z,-855.84
2019-04-05T04:57:00.812Z,-863.97
2019-04-05T04:58:01.136Z,-864.67
2019-04-05T04:59:01.560Z,-862.48
2019-04-05T05:00:01.943Z,-845.37
2019-04-05T05:01:02.218Z,-915.13
2019-04-05T05:02:02.599Z,-901.47
2019-04-05T05:03:02.944Z,-915.51
2019-04-05T05:04:03.323Z,-909.10
2019-04-05T05:05:03.636Z,-894.26
2019-04-05T05:06:03.996Z,-906.65
2019-04-05T05:07:04.386Z,-901.96
2019-04-05T05:08:04.854Z,-913.10
2019-04-05T05:09:05.089Z,-914.25
2019-04-05T05:10:05.435Z,-918.54
2019-04-05T05:11:14.020Z,-908.47
2019-04-05T05:12:07.427Z,-912.45
2019-04-05T05:13:06.524Z,-916.75
2019-04-05T05:14:06.985Z,-915.95
2019-04-05T05:15:07.265Z,-909.18
2019-04-05T05:16:07.678Z,-907.19
2019-04-05T05:17:08.006Z,-903.88
2019-04-05T05:18:08.334Z,-900.11
2019-04-05T05:19:08.691Z,-909.76
2019-04-05T05:20:09.071Z,-907.16
2019-04-05T05:21:09.410Z,-910.38
2019-04-05T05:22:09.790Z,-903.90
2019-04-05T05:23:10.176Z,-908.70
2019-04-05T05:24:10.593Z,-889.64
2019-04-05T05:25:10.880Z,-845.26
2019-04-05T05:26:11.213Z,-856.16
2019-04-05T05:27:11.588Z,-855.12
2019-04-05T05:28:11.918Z,-849.44
2019-04-05T05:29:12.308Z,-859.44
2019-04-05T05:30:12.673Z,-855.77
2019-04-05T05:31:13.017Z,-842.94
2019-04-05T05:32:13.443Z,-844.49
2019-04-05T05:33:13.778Z,-862.39
2019-04-05T05:34:14.129Z,-858.23
2019-04-05T05:35:14.480Z,-844.25
2019-04-05T05:36:14.820Z,-852.59
2019-04-05T05:37:15.224Z,-861.08
2019-04-05T05:38:15.536Z,-854.34
2019-04-05T05:39:15.880Z,-857.29
2019-04-05T05:40:16.278Z,-853.74
2019-04-05T05:41:16.728Z,-850.72
2019-04-05T05:42:17.029Z,-853.86
2019-04-05T05:43:17.347Z,-864.15
2019-04-05T05:44:17.678Z,-864.61
2019-04-05T05:45:18.084Z,-865.37
2019-04-05T05:46:18.427Z,-863.65
2019-04-05T05:47:18.828Z,-861.02
2019-04-05T05:48:19.151Z,-865.85
2019-04-05T05:49:19.573Z,-870.37
2019-04-05T05:50:19.913Z,-869.22
2019-04-05T05:51:20.214Z,-862.25
2019-04-05T05:52:20.601Z,-868.94
2019-04-05T05:53:20.934Z,-866.87
2019-04-05T05:54:21.315Z,-857.08
2019-04-05T05:55:21.653Z,-858.59
2019-04-05T05:56:22.017Z,-872.92
2019-04-05T05:57:22.456Z,-870.73
2019-04-05T05:58:25.349Z,-859.17
2019-04-05T05:59:23.099Z,-867.28
2019-04-05T06:00:23.475Z,-860.75
2019-04-05T06:01:23.800Z,-856.60
2019-04-05T06:02:24.190Z,-857.46
2019-04-05T06:03:24.543Z,-852.92
2019-04-05T06:04:24.910Z,-863.96
2019-04-05T06:05:25.345Z,-867.76
2019-04-05T06:06:25.613Z,-859.03
2019-04-05T06:07:26.004Z,-864.14
2019-04-05T06:08:28.965Z,-864.26
2019-04-05T06:09:26.733Z,-863.85
2019-04-05T06:10:27.103Z,-865.53
2019-04-05T06:11:27.443Z,-865.52
2019-04-05T06:12:27.805Z,-861.94
2019-04-05T06:13:28.153Z,-837.41
2019-04-05T06:14:28.630Z,-829.28
2019-04-05T06:15:28.891Z,-820.86
2019-04-05T06:16:29.236Z,-818.65
2019-04-05T06:17:29.583Z,-823.00
2019-04-05T06:18:29.979Z,-828.94
2019-04-05T06:19:30.368Z,-823.64
2019-04-05T06:20:30.716Z,-829.72
2019-04-05T06:21:31.058Z,-846.45
2019-04-05T06:22:31.536Z,-852.28
2019-04-05T06:23:33.816Z,-855.54
2019-04-05T06:24:32.162Z,-850.78
2019-04-05T06:25:32.532Z,-847.00
2019-04-05T06:26:32.870Z,-843.88
2019-04-05T06:27:35.350Z,-897.97
2019-04-05T06:28:33.617Z,-896.02
2019-04-05T06:29:33.963Z,-890.59
2019-04-05T06:30:34.421Z,-906.63
2019-04-05T06:31:34.672Z,-902.62
2019-04-05T06:32:35.037Z,-900.57
2019-04-05T06:33:35.873Z,-886.81
2019-04-05T06:34:35.745Z,-900.44
2019-04-05T06:35:36.130Z,-892.20
2019-04-05T06:36:36.488Z,-875.05
2019-04-05T06:37:36.846Z,-881.35
2019-04-05T06:38:37.282Z,-878.96
2019-04-05T06:39:37.547Z,-879.29
2019-04-05T06:40:41.130Z,-883.37
2019-04-05T06:41:38.289Z,-872.56
2019-04-05T06:42:38.637Z,-895.40
2019-04-05T06:43:39.008Z,-899.15
2019-04-05T06:44:39.377Z,-901.40
2019-04-05T06:45:39.738Z,-908.58
2019-04-05T06:46:40.083Z,-899.00
2019-04-05T06:47:40.542Z,-918.82
2019-04-05T06:48:40.824Z,-914.29
2019-04-05T06:49:41.163Z,-918.16
2019-04-05T06:50:41.773Z,-921.62
2019-04-05T06:51:41.855Z,-914.93
2019-04-05T06:52:42.229Z,-913.93
2019-04-05T06:53:42.624Z,-907.04
2019-04-05T06:54:42.983Z,-897.06
2019-04-05T06:55:43.463Z,-909.25
2019-04-05T06:56:43.678Z,-853.61
2019-04-05T06:57:44.049Z,-896.77
2019-04-05T06:58:46.120Z,-902.83
2019-04-05T06:59:44.785Z,-910.69
2019-04-05T07:00:56.519Z,-914.44
2019-04-05T07:01:46.498Z,-926.72
2019-04-05T07:02:45.839Z,-926.09
2019-04-05T07:03:46.360Z,-924.85
2019-04-05T07:04:46.582Z,-926.68
2019-04-05T07:05:46.943Z,-920.17
2019-04-05T07:06:47.284Z,-921.77
2019-04-05T07:07:47.626Z,-910.82
2019-04-05T07:08:53.712Z,-922.24
2019-04-05T07:09:49.377Z,-928.97
2019-04-05T07:10:48.757Z,-924.24
2019-04-05T07:11:49.150Z,-925.34
2019-04-05T07:12:49.460Z,-926.26
2019-04-05T07:13:49.816Z,-898.38
2019-04-05T07:14:50.172Z,-924.53
2019-04-05T07:15:50.804Z,-927.40
2019-04-05T07:16:50.897Z,-928.88
2019-04-05T07:17:51.258Z,-930.60
2019-04-05T07:18:51.647Z,-930.08
2019-04-05T07:19:52.001Z,-931.14
2019-04-05T07:20:52.369Z,-929.33
2019-04-05T07:21:52.709Z,-928.40
2019-04-05T07:22:53.080Z,-928.68
2019-04-05T07:23:53.460Z,-925.28
2019-04-05T07:24:53.806Z,-928.77
2019-04-05T07:25:54.145Z,-930.26
2019-04-05T07:26:54.550Z,-922.22
2019-04-05T07:27:54.908Z,-924.76
2019-04-05T07:28:55.393Z,-937.41
2019-04-05T07:29:55.609Z,-930.54
2019-04-05T07:30:55.973Z,-930.84
2019-04-05T07:31:56.364Z,-934.93
2019-04-05T07:32:56.713Z,-930.91
2019-04-05T07:33:57.081Z,-930.12
2019-04-05T07:34:57.437Z,-925.20
2019-04-05T07:35:57.781Z,-896.67
2019-04-05T07:36:58.324Z,-924.17
2019-04-05T07:37:58.496Z,-929.30
2019-04-05T07:38:58.881Z,-935.23
2019-04-05T07:39:59.234Z,-922.95
2019-04-05T07:40:59.568Z,-940.09
2019-04-05T07:41:59.943Z,-930.55
2019-04-05T07:43:00.299Z,-930.89
2019-04-05T07:44:00.676Z,-928.07
2019-04-05T07:45:01.118Z,-931.80
2019-04-05T07:46:01.358Z,-925.79
2019-04-05T07:47:01.728Z,-931.40
2019-04-05T07:48:02.069Z,-930.54
2019-04-05T07:49:02.473Z,-931.63
2019-04-05T07:50:02.818Z,-932.13
2019-04-05T07:51:03.166Z,-928.80
2019-04-05T07:52:03.545Z,-926.96
2019-04-05T07:53:03.897Z,-929.77
2019-04-05T07:54:04.240Z,-933.45
2019-04-05T07:55:04.615Z,-928.23
2019-04-05T07:56:04.976Z,-929.64
2019-04-05T07:57:05.357Z,-934.45
2019-04-05T07:58:05.683Z,-930.77
2019-04-05T07:59:06.055Z,-927.87
2019-04-05T08:00:06.408Z,-920.11
2019-04-05T08:01:06.803Z,-935.82
2019-04-05T08:02:07.262Z,-920.91
2019-04-05T08:03:07.487Z,-921.42
2019-04-05T08:04:07.860Z,-914.60
2019-04-05T08:05:08.283Z,-916.81
2019-04-05T08:06:08.588Z,-928.32
2019-04-05T08:07:08.965Z,-925.61
2019-04-05T08:08:09.298Z,-938.03
2019-04-05T08:09:09.717Z,-931.73
2019-04-05T08:10:10.140Z,-928.32
2019-04-05T08:11:10.378Z,-933.68
2019-04-05T08:12:10.758Z,-925.96
2019-04-05T08:13:11.094Z,-920.15
2019-04-05T08:14:11.503Z,-925.49
2019-04-05T08:15:11.802Z,-938.94
2019-04-05T08:16:12.181Z,-919.22
2019-04-05T08:17:12.574Z,-909.83
2019-04-05T08:18:12.964Z,-916.00
2019-04-05T08:19:13.278Z,-929.56
2019-04-05T08:20:13.614Z,-928.00
2019-04-05T08:21:13.967Z,-925.61
2019-04-05T08:22:14.361Z,-928.10
2019-04-05T08:23:14.704Z,-930.58
2019-04-05T08:24:15.067Z,-925.61
2019-04-05T08:25:15.450Z,-926.84
2019-04-05T08:26:15.805Z,-927.10
2019-04-05T08:27:16.155Z,-928.16
2019-04-05T08:28:16.510Z,-933.18
2019-04-05T08:29:16.867Z,-927.70
2019-04-05T08:30:17.498Z,-915.02
2019-04-05T08:31:17.836Z,-925.23
2019-04-05T08:32:18.219Z,-935.36
2019-04-05T08:33:18.551Z,-929.50
2019-04-05T08:34:18.992Z,-927.77
2019-04-05T08:35:19.371Z,-926.28
2019-04-05T08:36:19.655Z,-926.20
2019-04-05T08:37:20.028Z,-931.15
2019-04-05T08:38:20.351Z,-931.31
2019-04-05T08:39:20.729Z,-936.14
2019-04-05T08:40:21.120Z,-930.83
2019-04-05T08:41:21.448Z,-931.11
2019-04-05T08:42:21.840Z,-921.89
2019-04-05T08:43:22.302Z,-922.48
2019-04-05T08:44:22.528Z,-928.58
2019-04-05T08:45:22.925Z,-934.03
2019-04-05T08:46:23.250Z,-936.58
2019-04-05T08:47:23.620Z,-936.09
2019-04-05T08:48:23.956Z,-936.12
2019-04-05T08:49:24.340Z,-937.25
2019-04-05T08:50:24.702Z,-928.81
2019-04-05T08:51:25.158Z,-937.06
2019-04-05T08:52:26.928Z,-936.42
2019-04-05T08:53:25.750Z,-931.40
2019-04-05T08:54:32.366Z,-933.51
2019-04-05T08:55:27.506Z,-930.70
2019-04-05T08:56:26.836Z,-928.42
2019-04-05T08:57:27.217Z,-927.65
2019-04-05T08:58:33.354Z,-929.48
2019-04-05T08:59:28.936Z,-932.21
2019-04-05T09:00:28.273Z,-938.94
2019-04-05T09:01:28.625Z,-938.24
2019-04-05T09:02:29.010Z,-934.89
2019-04-05T09:03:29.347Z,-936.46
2019-04-05T09:04:29.705Z,-934.98
2019-04-05T09:05:33.120Z,-933.62
2019-04-05T09:06:30.404Z,-934.72
2019-04-05T09:07:30.858Z,-885.14
2019-04-05T09:08:31.133Z,-890.42
2019-04-05T09:09:31.500Z,-886.00
2019-04-05T09:10:31.961Z,-888.16
2019-04-05T09:11:32.209Z,-891.23
2019-04-05T09:12:32.606Z,-884.67
2019-04-05T09:13:32.964Z,-887.85
2019-04-05T09:14:33.322Z,-881.03
2019-04-05T09:15:33.738Z,-867.96
2019-04-05T09:16:34.146Z,-876.01
2019-04-05T09:17:34.425Z,-882.52
2019-04-05T09:18:34.781Z,-888.01
2019-04-05T09:19:35.154Z,-885.48
2019-04-05T09:20:35.538Z,-884.45
2019-04-05T09:21:40.085Z,-887.59
2019-04-05T09:22:36.235Z,-879.29
2019-04-05T09:23:36.562Z,-882.29
2019-04-05T09:24:37.033Z,-886.58
2019-04-05T09:25:37.327Z,-880.92
2019-04-05T09:26:37.659Z,-881.17
2019-04-05T09:27:38.015Z,-886.46
2019-04-05T09:28:38.391Z,-879.02
2019-04-05T09:29:38.819Z,-882.85
2019-04-05T09:30:39.154Z,-889.14
2019-04-05T09:31:39.486Z,-888.23
2019-04-05T09:32:39.917Z,-882.26
2019-04-05T09:33:40.191Z,-890.20
2019-04-05T09:34:40.570Z,-885.05
2019-04-05T09:35:41.027Z,-754.27
2019-04-05T09:36:41.287Z,-876.34
2019-04-05T09:37:41.653Z,-881.20
2019-04-05T09:38:42.093Z,-885.29
2019-04-05T09:39:42.371Z,-889.71
2019-04-05T09:40:42.819Z,-884.93
2019-04-05T09:41:43.103Z,-936.55
2019-04-05T09:42:43.467Z,-939.21
2019-04-05T09:43:43.844Z,-935.83
2019-04-05T09:44:44.176Z,-937.82
2019-04-05T09:45:44.578Z,-928.38
2019-04-05T09:46:48.105Z,-932.67
2019-04-05T09:47:46.282Z,-939.23
2019-04-05T09:48:45.723Z,-941.68
2019-04-05T09:49:46.054Z,-935.69
2019-04-05T09:50:46.369Z,-939.32
2019-04-05T09:51:46.716Z,-939.94
2019-04-05T09:52:47.079Z,-934.38
2019-04-05T09:53:47.454Z,-908.96
2019-04-05T09:54:47.797Z,-891.72
2019-04-05T09:55:48.190Z,-918.21
2019-04-05T09:56:48.518Z,-920.92
2019-04-05T09:57:49.017Z,-935.67
2019-04-05T09:58:49.259Z,-940.93
2019-04-05T09:59:49.607Z,-940.13
2019-04-05T10:00:50.000Z,-931.02
2019-04-05T10:01:50.299Z,-938.42
2019-04-05T10:02:50.686Z,-934.18
2019-04-05T10:03:51.062Z,-942.14
2019-04-05T10:04:51.407Z,-940.78
2019-04-05T10:05:52.132Z,-933.38
2019-04-05T10:06:52.095Z,-931.33
2019-04-05T10:07:55.346Z,-936.42
2019-04-05T10:08:52.870Z,-936.97
2019-04-05T10:09:53.203Z,-941.76
2019-04-05T10:10:53.607Z,-933.44
2019-04-05T10:11:53.935Z,-929.52
2019-04-05T10:12:54.281Z,-933.96
2019-04-05T10:13:54.688Z,-936.63
2019-04-05T10:14:54.996Z,-940.83
2019-04-05T10:15:55.388Z,-887.45
2019-04-05T10:16:55.722Z,-929.72
2019-04-05T10:17:56.087Z,-936.26
2019-04-05T10:18:56.443Z,-928.99
2019-04-05T10:19:56.779Z,-926.21
2019-04-05T10:20:57.187Z,-913.47
2019-04-05T10:21:57.588Z,-931.42
2019-04-05T10:22:57.887Z,-927.11
2019-04-05T10:23:58.259Z,-931.92
2019-04-05T10:24:58.583Z,-927.85
2019-04-05T10:25:59.003Z,-930.51
2019-04-05T10:26:59.341Z,-933.42
2019-04-05T10:27:59.695Z,-924.99
2019-04-05T10:29:00.073Z,-930.48
2019-04-05T10:30:00.431Z,-932.78
2019-04-05T10:31:00.895Z,-933.93
2019-04-05T10:32:01.135Z,-930.60
2019-04-05T10:33:01.492Z,-934.42
2019-04-05T10:34:01.875Z,-934.52
2019-04-05T10:35:02.212Z,-936.46
2019-04-05T10:36:02.600Z,-892.82
2019-04-05T10:37:02.954Z,-925.82
2019-04-05T10:38:03.326Z,-912.71
2019-04-05T10:39:03.822Z,-920.05
2019-04-05T10:40:04.039Z,-928.34
2019-04-05T10:41:04.401Z,-942.58
2019-04-05T10:42:04.789Z,-907.25
2019-04-05T10:43:05.150Z,-923.19
2019-04-05T10:44:05.522Z,-924.59
2019-04-05T10:45:05.867Z,-918.46
2019-04-05T10:46:06.251Z,-917.50
2019-04-05T10:47:06.638Z,-927.11
2019-04-05T10:48:06.931Z,-928.14
2019-04-05T10:49:07.316Z,-933.23
2019-04-05T10:50:07.663Z,-936.35
2019-04-05T10:51:08.023Z,-939.20
2019-04-05T10:52:08.395Z,-938.98
2019-04-05T10:53:08.731Z,-932.45
2019-04-05T10:54:09.458Z,-934.59
2019-04-05T10:55:09.757Z,-937.91
2019-04-05T10:56:09.816Z,-902.62
2019-04-05T10:57:10.164Z,-882.39
2019-04-05T10:58:10.505Z,-885.07
2019-04-05T10:59:10.872Z,-935.66
2019-04-05T11:00:11.236Z,-933.71
2019-04-05T11:01:11.616Z,-936.76
2019-04-05T11:02:12.415Z,-941.05
2019-04-05T11:03:12.342Z,-939.60
2019-04-05T11:04:12.714Z,-938.21
2019-04-05T11:05:13.103Z,-937.45
2019-04-05T11:06:13.395Z,-942.53
2019-04-05T11:07:13.781Z,-938.48
2019-04-05T11:08:14.113Z,-939.06
2019-04-05T11:09:14.489Z,-942.45
2019-04-05T11:10:14.814Z,-939.00
2019-04-05T11:11:15.208Z,-916.13
2019-04-05T11:12:15.698Z,-929.67
2019-04-05T11:13:15.931Z,-929.09
2019-04-05T11:14:16.355Z,-924.77
2019-04-05T11:15:16.619Z,-870.27
2019-04-05T11:16:17.009Z,-916.54
2019-04-05T11:17:17.374Z,-923.84
2019-04-05T11:18:17.720Z,-939.17
2019-04-05T11:19:18.101Z,-929.65
2019-04-05T11:20:22.460Z,-930.80
2019-04-05T11:21:18.942Z,-929.00
2019-04-05T11:22:20.374Z,-936.42
2019-04-05T11:23:21.327Z,-928.60
2019-04-05T11:24:19.889Z,-936.47
2019-04-05T11:25:20.688Z,-933.28
2019-04-05T11:26:20.580Z,-939.55
2019-04-05T11:27:20.961Z,-927.97
2019-04-05T11:28:21.354Z,-931.36
2019-04-05T11:29:21.666Z,-943.76
2019-04-05T11:30:22.012Z,-946.75
2019-04-05T11:31:22.389Z,-937.69
2019-04-05T11:32:22.736Z,-940.80
2019-04-05T11:33:23.091Z,-931.30
2019-04-05T11:34:23.477Z,-938.55
2019-04-05T11:35:23.818Z,-934.19
2019-04-05T11:36:24.239Z,-913.34
2019-04-05T11:37:24.573Z,-933.86
2019-04-05T11:38:24.895Z,-935.04
2019-04-05T11:39:25.295Z,-940.38
2019-04-05T11:40:25.642Z,-935.54
2019-04-05T11:41:26.005Z,-926.00
2019-04-05T11:42:26.372Z,-940.16
2019-04-05T11:43:29.457Z,-889.57
2019-04-05T11:44:27.330Z,-888.17
2019-04-05T11:45:27.506Z,-940.91
2019-04-05T11:46:27.798Z,-922.49
2019-04-05T11:47:28.177Z,-925.79
2019-04-05T11:48:30.328Z,-932.11
2019-04-05T11:49:28.858Z,-939.67
2019-04-05T11:50:34.353Z,-936.00
2019-04-05T11:51:30.597Z,-911.11
2019-04-05T11:52:29.962Z,-932.86
2019-04-05T11:53:30.426Z,-942.05
2019-04-05T11:54:30.669Z,-934.51
2019-04-05T11:55:31.056Z,-933.83
2019-04-05T11:56:31.427Z,-913.85
2019-04-05T11:57:31.798Z,-922.45
2019-04-05T11:58:32.130Z,-910.91
2019-04-05T11:59:32.545Z,-922.38
2019-04-05T12:00:32.875Z,-924.16
2019-04-05T12:01:33.318Z,-895.21
2019-04-05T12:02:33.619Z,-930.92
2019-04-05T12:03:33.962Z,-931.09
2019-04-05T12:04:34.323Z,-926.27
2019-04-05T12:05:34.684Z,-938.99
2019-04-05T12:06:35.335Z,-933.36
2019-04-05T12:07:35.419Z,-944.12
2019-04-05T12:08:35.759Z,-936.40
2019-04-05T12:09:36.160Z,-941.04